sensor_id;sensor_type;location;lat;lon;timestamp;pressure;altitude;pressure_sealevel;temperature;humidity
46303;BME280;32029;51.358;5.628;2022-08-19T00:01:46;101038.47;;;20.76;86.43
46303;BME280;32029;51.358;5.628;2022-08-19T00:04:16;101075.47;;;21.00;86.76
46303;BME280;32029;51.358;5.628;2022-08-19T00:06:46;101061.44;;;20.95;86.41
46303;BME280;32029;51.358;5.628;2022-08-19T00:09:15;101069.09;;;20.88;86.64
46303;BME280;32029;51.358;5.628;2022-08-19T00:11:44;100971.41;;;20.26;86.70
46303;BME280;32029;51.358;5.628;2022-08-19T00:14:13;101066.09;;;20.78;86.90
46303;BME280;32029;51.358;5.628;2022-08-19T00:16:45;101073.28;;;20.74;86.70
46303;BME280;32029;51.358;5.628;2022-08-19T00:19:12;101036.91;;;20.52;86.40
46303;BME280;32029;51.358;5.628;2022-08-19T00:21:39;101023.34;;;20.32;86.25
46303;BME280;32029;51.358;5.628;2022-08-19T00:24:09;101072.13;;;20.58;86.81
46303;BME280;32029;51.358;5.628;2022-08-19T00:26:36;101058.09;;;20.41;86.55
46303;BME280;32029;51.358;5.628;2022-08-19T00:29:05;101023.03;;;20.17;87.42
46303;BME280;32029;51.358;5.628;2022-08-19T00:31:33;101051.59;;;20.24;87.49
46303;BME280;32029;51.358;5.628;2022-08-19T00:34:00;101074.09;;;20.34;88.20
46303;BME280;32029;51.358;5.628;2022-08-19T00:36:27;101080.28;;;20.24;89.16
46303;BME280;32029;51.358;5.628;2022-08-19T00:38:55;101057.81;;;20.02;90.64
46303;BME280;32029;51.358;5.628;2022-08-19T00:41:24;101034.22;;;19.93;91.56
46303;BME280;32029;51.358;5.628;2022-08-19T00:44:08;101064.34;;;20.08;92.93
46303;BME280;32029;51.358;5.628;2022-08-19T00:46:39;100984.84;;;19.53;93.37
46303;BME280;32029;51.358;5.628;2022-08-19T00:49:11;101067.84;;;20.03;94.21
46303;BME280;32029;51.358;5.628;2022-08-19T00:51:43;101067.03;;;20.03;94.60
46303;BME280;32029;51.358;5.628;2022-08-19T00:54:11;101057.56;;;20.04;95.23
46303;BME280;32029;51.358;5.628;2022-08-19T00:56:38;101043.56;;;19.87;95.89
46303;BME280;32029;51.358;5.628;2022-08-19T00:59:08;101065.69;;;20.05;96.31
46303;BME280;32029;51.358;5.628;2022-08-19T01:01:41;101045.22;;;19.88;96.23
46303;BME280;32029;51.358;5.628;2022-08-19T01:04:09;101073.78;;;20.07;96.54
46303;BME280;32029;51.358;5.628;2022-08-19T01:06:38;101072.09;;;20.06;96.47
46303;BME280;32029;51.358;5.628;2022-08-19T01:09:08;101065.69;;;20.05;96.83
46303;BME280;32029;51.358;5.628;2022-08-19T01:11:39;101076.84;;;20.05;96.75
46303;BME280;32029;51.358;5.628;2022-08-19T01:14:08;101067.63;;;20.05;97.06
46303;BME280;32029;51.358;5.628;2022-08-19T01:16:37;101047.53;;;19.91;96.59
46303;BME280;32029;51.358;5.628;2022-08-19T01:19:21;101033.38;;;19.81;95.97
46303;BME280;32029;51.358;5.628;2022-08-19T01:22:01;101055.41;;;19.94;95.76
46303;BME280;32029;51.358;5.628;2022-08-19T01:24:29;101061.94;;;20.00;96.20
46303;BME280;32029;51.358;5.628;2022-08-19T01:26:57;101070.53;;;19.98;97.13
46303;BME280;32029;51.358;5.628;2022-08-19T01:29:24;101082.16;;;19.95;97.29
46303;BME280;32029;51.358;5.628;2022-08-19T01:31:51;101076.34;;;19.85;97.32
46303;BME280;32029;51.358;5.628;2022-08-19T01:34:19;101072.50;;;19.86;97.57
46303;BME280;32029;51.358;5.628;2022-08-19T01:36:47;101077.91;;;19.81;97.45
46303;BME280;32029;51.358;5.628;2022-08-19T01:39:20;101033.50;;;19.51;96.91
46303;BME280;32029;51.358;5.628;2022-08-19T01:41:50;101089.19;;;19.86;97.13
46303;BME280;32029;51.358;5.628;2022-08-19T01:44:21;101091.97;;;19.86;96.40
46303;BME280;32029;51.358;5.628;2022-08-19T01:46:51;101041.47;;;19.59;95.55
46303;BME280;32029;51.358;5.628;2022-08-19T01:49:20;101066.56;;;19.71;94.96
46303;BME280;32029;51.358;5.628;2022-08-19T01:51:49;101098.25;;;19.81;94.65
46303;BME280;32029;51.358;5.628;2022-08-19T01:54:17;101054.19;;;19.55;94.49
46303;BME280;32029;51.358;5.628;2022-08-19T01:56:45;101102.28;;;19.74;94.04
46303;BME280;32029;51.358;5.628;2022-08-19T01:59:15;101094.41;;;19.71;93.57
46303;BME280;32029;51.358;5.628;2022-08-19T02:01:43;101107.09;;;19.67;92.80
46303;BME280;32029;51.358;5.628;2022-08-19T02:04:10;101102.94;;;19.57;92.20
46303;BME280;32029;51.358;5.628;2022-08-19T02:06:37;101108.50;;;19.57;91.99
46303;BME280;32029;51.358;5.628;2022-08-19T02:09:08;101061.13;;;19.22;92.14
46303;BME280;32029;51.358;5.628;2022-08-19T02:11:37;101106.06;;;19.49;92.09
46303;BME280;32029;51.358;5.628;2022-08-19T02:14:07;101103.16;;;19.44;91.75
46303;BME280;32029;51.358;5.628;2022-08-19T02:16:35;101088.97;;;19.34;91.54
46303;BME280;32029;51.358;5.628;2022-08-19T02:19:03;101096.84;;;19.37;91.82
46303;BME280;32029;51.358;5.628;2022-08-19T02:21:32;101063.44;;;19.14;92.08
46303;BME280;32029;51.358;5.628;2022-08-19T02:24:00;101095.50;;;19.28;92.72
46303;BME280;32029;51.358;5.628;2022-08-19T02:26:28;101090.44;;;19.25;92.44
46303;BME280;32029;51.358;5.628;2022-08-19T02:28:55;101036.88;;;18.88;92.67
46303;BME280;32029;51.358;5.628;2022-08-19T02:31:24;101081.69;;;19.09;92.87
46303;BME280;32029;51.358;5.628;2022-08-19T02:33:52;101097.19;;;19.17;92.71
46303;BME280;32029;51.358;5.628;2022-08-19T02:36:19;101097.91;;;19.13;92.63
46303;BME280;32029;51.358;5.628;2022-08-19T02:38:47;101106.44;;;19.11;92.12
46303;BME280;32029;51.358;5.628;2022-08-19T02:41:21;101112.28;;;19.09;91.23
46303;BME280;32029;51.358;5.628;2022-08-19T02:43:48;101117.69;;;19.04;90.19
46303;BME280;32029;51.358;5.628;2022-08-19T02:46:22;101113.69;;;19.00;90.08
46303;BME280;32029;51.358;5.628;2022-08-19T02:48:53;101116.31;;;18.95;89.76
46303;BME280;32029;51.358;5.628;2022-08-19T02:51:26;101117.28;;;18.89;89.72
46303;BME280;32029;51.358;5.628;2022-08-19T02:53:54;101116.25;;;18.83;89.70
46303;BME280;32029;51.358;5.628;2022-08-19T02:56:21;101114.81;;;18.81;89.74
46303;BME280;32029;51.358;5.628;2022-08-19T02:58:49;101109.59;;;18.73;89.47
46303;BME280;32029;51.358;5.628;2022-08-19T03:01:25;101117.94;;;18.73;89.77
46303;BME280;32029;51.358;5.628;2022-08-19T03:03:55;101104.78;;;18.61;89.77
46303;BME280;32029;51.358;5.628;2022-08-19T03:06:23;101101.25;;;18.54;89.84
46303;BME280;32029;51.358;5.628;2022-08-19T03:08:51;101115.38;;;18.53;89.79
46303;BME280;32029;51.358;5.628;2022-08-19T03:11:27;101131.56;;;18.56;89.90
46303;BME280;32029;51.358;5.628;2022-08-19T03:13:56;101118.16;;;18.53;90.15
46303;BME280;32029;51.358;5.628;2022-08-19T03:16:25;101107.19;;;18.40;90.29
46303;BME280;32029;51.358;5.628;2022-08-19T03:18:52;101103.31;;;18.41;90.31
46303;BME280;32029;51.358;5.628;2022-08-19T03:21:23;101108.41;;;18.44;90.57
46303;BME280;32029;51.358;5.628;2022-08-19T03:23:56;101122.09;;;18.45;90.89
46303;BME280;32029;51.358;5.628;2022-08-19T03:26:24;101130.44;;;18.45;91.08
46303;BME280;32029;51.358;5.628;2022-08-19T03:28:51;101131.97;;;18.41;90.99
46303;BME280;32029;51.358;5.628;2022-08-19T03:31:20;101110.75;;;18.28;91.07
46303;BME280;32029;51.358;5.628;2022-08-19T03:33:52;101123.47;;;18.36;90.80
46303;BME280;32029;51.358;5.628;2022-08-19T03:36:22;101116.69;;;18.32;90.79
46303;BME280;32029;51.358;5.628;2022-08-19T03:38:56;101124.81;;;18.33;90.54
46303;BME280;32029;51.358;5.628;2022-08-19T03:41:36;101121.41;;;18.31;90.51
46303;BME280;32029;51.358;5.628;2022-08-19T03:44:04;101111.44;;;18.24;90.42
46303;BME280;32029;51.358;5.628;2022-08-19T03:46:32;101123.19;;;18.26;90.19
46303;BME280;32029;51.358;5.628;2022-08-19T03:49:02;101124.94;;;18.20;90.17
46303;BME280;32029;51.358;5.628;2022-08-19T03:51:38;101118.16;;;18.16;90.65
46303;BME280;32029;51.358;5.628;2022-08-19T03:54:07;101125.94;;;18.07;90.96
46303;BME280;32029;51.358;5.628;2022-08-19T03:56:37;101134.88;;;18.09;91.22
46303;BME280;32029;51.358;5.628;2022-08-19T03:59:07;101128.91;;;18.06;91.33
46303;BME280;32029;51.358;5.628;2022-08-19T04:01:35;101114.50;;;17.97;91.55
46303;BME280;32029;51.358;5.628;2022-08-19T04:04:03;101122.38;;;18.00;91.65
46303;BME280;32029;51.358;5.628;2022-08-19T04:06:33;101124.53;;;17.98;91.49
46303;BME280;32029;51.358;5.628;2022-08-19T04:09:03;101122.22;;;17.95;91.55
46303;BME280;32029;51.358;5.628;2022-08-19T04:11:39;101119.91;;;17.92;91.79
46303;BME280;32029;51.358;5.628;2022-08-19T04:14:14;101123.13;;;17.89;91.87
46303;BME280;32029;51.358;5.628;2022-08-19T04:16:43;101122.53;;;17.87;91.85
46303;BME280;32029;51.358;5.628;2022-08-19T04:19:12;101129.59;;;17.83;92.03
46303;BME280;32029;51.358;5.628;2022-08-19T04:21:43;101103.47;;;17.66;92.14
46303;BME280;32029;51.358;5.628;2022-08-19T04:24:12;101085.16;;;17.58;92.09
46303;BME280;32029;51.358;5.628;2022-08-19T04:26:40;101105.78;;;17.69;92.45
46303;BME280;32029;51.358;5.628;2022-08-19T04:29:22;101117.72;;;17.76;92.74
46303;BME280;32029;51.358;5.628;2022-08-19T04:31:53;101095.94;;;17.73;93.06
46303;BME280;32029;51.358;5.628;2022-08-19T04:34:24;101110.00;;;17.78;93.86
46303;BME280;32029;51.358;5.628;2022-08-19T04:36:53;101097.00;;;17.72;93.20
46303;BME280;32029;51.358;5.628;2022-08-19T04:39:23;101085.31;;;17.63;92.79
46303;BME280;32029;51.358;5.628;2022-08-19T04:42:10;101110.44;;;17.75;92.35
46303;BME280;32029;51.358;5.628;2022-08-19T04:44:57;101094.28;;;17.65;92.39
46303;BME280;32029;51.358;5.628;2022-08-19T04:47:26;101103.63;;;17.71;92.01
46303;BME280;32029;51.358;5.628;2022-08-19T04:49:53;101093.09;;;17.54;92.02
46303;BME280;32029;51.358;5.628;2022-08-19T04:52:19;101101.22;;;17.56;91.98
46303;BME280;32029;51.358;5.628;2022-08-19T04:54:47;101113.94;;;17.63;91.90
46303;BME280;32029;51.358;5.628;2022-08-19T04:57:15;101112.75;;;17.53;91.89
46303;BME280;32029;51.358;5.628;2022-08-19T04:59:42;101088.75;;;17.40;92.27
46303;BME280;32029;51.358;5.628;2022-08-19T05:02:10;101127.19;;;17.61;92.70
46303;BME280;32029;51.358;5.628;2022-08-19T05:04:37;101112.53;;;17.54;92.57
46303;BME280;32029;51.358;5.628;2022-08-19T05:07:07;101125.94;;;17.57;92.71
46303;BME280;32029;51.358;5.628;2022-08-19T05:09:35;101132.75;;;17.61;93.33
46303;BME280;32029;51.358;5.628;2022-08-19T05:12:02;101141.22;;;17.67;93.05
46303;BME280;32029;51.358;5.628;2022-08-19T05:14:30;101126.38;;;17.54;93.56
46303;BME280;32029;51.358;5.628;2022-08-19T05:16:57;101129.81;;;17.56;93.78
46303;BME280;32029;51.358;5.628;2022-08-19T05:19:24;101139.81;;;17.57;94.22
46303;BME280;32029;51.358;5.628;2022-08-19T05:22:10;101154.88;;;17.68;94.49
46303;BME280;32029;51.358;5.628;2022-08-19T05:24:56;101109.88;;;17.41;94.63
46303;BME280;32029;51.358;5.628;2022-08-19T05:27:25;101142.16;;;17.60;94.85
46303;BME280;32029;51.358;5.628;2022-08-19T05:29:52;101151.88;;;17.70;95.28
46303;BME280;32029;51.358;5.628;2022-08-19T05:32:19;101156.13;;;17.79;96.65
46303;BME280;32029;51.358;5.628;2022-08-19T05:34:48;101151.00;;;17.76;97.57
46303;BME280;32029;51.358;5.628;2022-08-19T05:37:16;101170.94;;;17.91;97.74
46303;BME280;32029;51.358;5.628;2022-08-19T05:39:44;101158.59;;;17.87;99.04
46303;BME280;32029;51.358;5.628;2022-08-19T05:42:12;101171.75;;;17.98;99.62
46303;BME280;32029;51.358;5.628;2022-08-19T05:44:42;101165.25;;;18.04;100.00
46303;BME280;32029;51.358;5.628;2022-08-19T05:47:13;101163.31;;;18.05;100.00
46303;BME280;32029;51.358;5.628;2022-08-19T05:49:41;101159.66;;;18.11;100.00
46303;BME280;32029;51.358;5.628;2022-08-19T05:52:11;101170.84;;;18.23;100.00
46303;BME280;32029;51.358;5.628;2022-08-19T05:54:40;101159.88;;;18.28;100.00
46303;BME280;32029;51.358;5.628;2022-08-19T05:57:09;101169.59;;;18.37;100.00
46303;BME280;32029;51.358;5.628;2022-08-19T05:59:37;101149.16;;;18.31;100.00
46303;BME280;32029;51.358;5.628;2022-08-19T06:02:06;101176.72;;;18.51;100.00
46303;BME280;32029;51.358;5.628;2022-08-19T06:04:34;101126.56;;;18.28;100.00
46303;BME280;32029;51.358;5.628;2022-08-19T06:07:02;101158.50;;;18.55;100.00
46303;BME280;32029;51.358;5.628;2022-08-19T06:09:30;101161.59;;;18.66;100.00
46303;BME280;32029;51.358;5.628;2022-08-19T06:11:58;101175.81;;;18.76;100.00
46303;BME280;32029;51.358;5.628;2022-08-19T06:14:30;101137.69;;;18.65;100.00
46303;BME280;32029;51.358;5.628;2022-08-19T06:16:58;101168.41;;;18.88;100.00
46303;BME280;32029;51.358;5.628;2022-08-19T06:19:30;101157.81;;;18.97;100.00
46303;BME280;32029;51.358;5.628;2022-08-19T06:21:58;101166.41;;;19.07;99.93
46303;BME280;32029;51.358;5.628;2022-08-19T06:24:28;101140.28;;;18.96;99.25
46303;BME280;32029;51.358;5.628;2022-08-19T06:26:57;101164.31;;;19.21;99.27
46303;BME280;32029;51.358;5.628;2022-08-19T06:29:26;101162.88;;;19.30;98.92
46303;BME280;32029;51.358;5.628;2022-08-19T06:31:56;101144.13;;;19.25;98.38
46303;BME280;32029;51.358;5.628;2022-08-19T06:34:25;101154.56;;;19.42;98.02
46303;BME280;32029;51.358;5.628;2022-08-19T06:36:56;101154.94;;;19.45;97.78
46303;BME280;32029;51.358;5.628;2022-08-19T06:39:26;101156.44;;;19.59;97.67
46303;BME280;32029;51.358;5.628;2022-08-19T06:41:57;101157.81;;;19.69;97.24
46303;BME280;32029;51.358;5.628;2022-08-19T06:44:28;101145.56;;;19.70;97.00
46303;BME280;32029;51.358;5.628;2022-08-19T06:46:55;101137.84;;;19.72;96.69
46303;BME280;32029;51.358;5.628;2022-08-19T06:49:23;101144.16;;;19.79;96.54
46303;BME280;32029;51.358;5.628;2022-08-19T06:51:52;101130.44;;;19.77;96.28
46303;BME280;32029;51.358;5.628;2022-08-19T06:54:20;101146.84;;;19.97;95.99
46303;BME280;32029;51.358;5.628;2022-08-19T06:56:47;101157.09;;;20.08;95.53
46303;BME280;32029;51.358;5.628;2022-08-19T06:59:20;101155.66;;;20.06;95.52
46303;BME280;32029;51.358;5.628;2022-08-19T07:01:51;101158.94;;;20.15;95.29
46303;BME280;32029;51.358;5.628;2022-08-19T07:04:24;101154.19;;;20.15;94.97
46303;BME280;32029;51.358;5.628;2022-08-19T07:06:58;101152.72;;;20.24;94.79
46303;BME280;32029;51.358;5.628;2022-08-19T07:09:25;101158.81;;;20.33;94.40
46303;BME280;32029;51.358;5.628;2022-08-19T07:11:54;101149.34;;;20.34;94.13
46303;BME280;32029;51.358;5.628;2022-08-19T07:14:26;101150.44;;;20.33;94.10
46303;BME280;32029;51.358;5.628;2022-08-19T07:16:55;101167.38;;;20.43;94.34
46303;BME280;32029;51.358;5.628;2022-08-19T07:19:24;101171.88;;;20.56;94.05
46303;BME280;32029;51.358;5.628;2022-08-19T07:21:54;101153.09;;;20.51;93.92
46303;BME280;32029;51.358;5.628;2022-08-19T07:24:22;101151.50;;;20.55;93.59
46303;BME280;32029;51.358;5.628;2022-08-19T07:26:52;101170.97;;;20.79;93.79
46303;BME280;32029;51.358;5.628;2022-08-19T07:29:22;101143.59;;;20.76;93.08
46303;BME280;32029;51.358;5.628;2022-08-19T07:31:54;101178.06;;;20.98;92.46
46303;BME280;32029;51.358;5.628;2022-08-19T07:34:24;101179.88;;;21.04;92.40
46303;BME280;32029;51.358;5.628;2022-08-19T07:36:53;101162.28;;;21.04;91.98
46303;BME280;32029;51.358;5.628;2022-08-19T07:39:30;101169.50;;;21.17;91.72
46303;BME280;32029;51.358;5.628;2022-08-19T07:42:01;101192.50;;;21.36;91.06
46303;BME280;32029;51.358;5.628;2022-08-19T07:44:29;101172.50;;;21.27;90.57
46303;BME280;32029;51.358;5.628;2022-08-19T07:46:58;101190.63;;;21.41;90.42
46303;BME280;32029;51.358;5.628;2022-08-19T07:49:27;101183.38;;;21.40;90.77
46303;BME280;32029;51.358;5.628;2022-08-19T07:52:01;101166.03;;;21.38;90.49
46303;BME280;32029;51.358;5.628;2022-08-19T07:54:33;101166.13;;;21.43;90.30
46303;BME280;32029;51.358;5.628;2022-08-19T07:57:02;101183.25;;;21.64;90.26
46303;BME280;32029;51.358;5.628;2022-08-19T07:59:30;101198.66;;;21.83;90.22
46303;BME280;32029;51.358;5.628;2022-08-19T08:01:58;101197.22;;;21.97;89.28
46303;BME280;32029;51.358;5.628;2022-08-19T08:04:28;101204.06;;;22.07;88.53
46303;BME280;32029;51.358;5.628;2022-08-19T08:07:14;101188.41;;;22.06;88.06
46303;BME280;32029;51.358;5.628;2022-08-19T08:10:00;101179.53;;;22.09;86.63
46303;BME280;32029;51.358;5.628;2022-08-19T08:12:35;101211.47;;;22.30;87.24
46303;BME280;32029;51.358;5.628;2022-08-19T08:15:10;101220.84;;;22.40;87.02
46303;BME280;32029;51.358;5.628;2022-08-19T08:17:38;101213.72;;;22.49;85.66
46303;BME280;32029;51.358;5.628;2022-08-19T08:20:07;101203.84;;;22.64;84.40
46303;BME280;32029;51.358;5.628;2022-08-19T08:22:34;101218.28;;;22.78;84.36
46303;BME280;32029;51.358;5.628;2022-08-19T08:25:22;101210.03;;;22.88;82.85
46303;BME280;32029;51.358;5.628;2022-08-19T08:27:50;101202.59;;;22.93;82.57
46303;BME280;32029;51.358;5.628;2022-08-19T08:30:22;101222.34;;;23.09;82.34
46303;BME280;32029;51.358;5.628;2022-08-19T08:32:50;101227.63;;;23.27;81.91
46303;BME280;32029;51.358;5.628;2022-08-19T08:35:22;101235.41;;;23.47;80.84
46303;BME280;32029;51.358;5.628;2022-08-19T08:37:52;101233.03;;;23.61;80.41
46303;BME280;32029;51.358;5.628;2022-08-19T08:40:29;101240.47;;;23.72;79.60
46303;BME280;32029;51.358;5.628;2022-08-19T08:43:05;101249.28;;;23.86;79.08
46303;BME280;32029;51.358;5.628;2022-08-19T08:45:38;101246.91;;;24.00;78.08
46303;BME280;32029;51.358;5.628;2022-08-19T08:48:27;101236.34;;;24.12;75.89
46303;BME280;32029;51.358;5.628;2022-08-19T08:51:02;101235.88;;;24.25;76.04
46303;BME280;32029;51.358;5.628;2022-08-19T08:53:30;101228.09;;;24.37;74.71
46303;BME280;32029;51.358;5.628;2022-08-19T08:56:02;101221.78;;;24.47;73.71
46303;BME280;32029;51.358;5.628;2022-08-19T08:58:38;101215.03;;;24.48;73.50
46303;BME280;32029;51.358;5.628;2022-08-19T09:01:12;101228.34;;;24.68;73.14
46303;BME280;32029;51.358;5.628;2022-08-19T09:03:41;101217.97;;;24.68;72.06
46303;BME280;32029;51.358;5.628;2022-08-19T09:06:28;101213.19;;;24.69;71.10
46303;BME280;32029;51.358;5.628;2022-08-19T09:09:05;101219.94;;;24.68;70.94
46303;BME280;32029;51.358;5.628;2022-08-19T09:14:45;101235.06;;;24.67;70.47
46303;BME280;32029;51.358;5.628;2022-08-19T09:17:16;101202.88;;;24.37;71.02
46303;BME280;32029;51.358;5.628;2022-08-19T09:19:52;101217.53;;;24.44;71.53
46303;BME280;32029;51.358;5.628;2022-08-19T09:22:20;101206.50;;;24.38;70.46
46303;BME280;32029;51.358;5.628;2022-08-19T09:24:50;101237.78;;;24.52;69.42
46303;BME280;32029;51.358;5.628;2022-08-19T09:27:21;101223.69;;;24.41;70.06
46303;BME280;32029;51.358;5.628;2022-08-19T09:29:51;101198.06;;;24.28;71.07
46303;BME280;32029;51.358;5.628;2022-08-19T09:32:19;101215.84;;;24.43;69.42
46303;BME280;32029;51.358;5.628;2022-08-19T09:34:48;101214.72;;;24.39;69.73
46303;BME280;32029;51.358;5.628;2022-08-19T09:37:15;101213.91;;;24.44;70.50
46303;BME280;32029;51.358;5.628;2022-08-19T09:39:43;101217.03;;;24.53;69.44
46303;BME280;32029;51.358;5.628;2022-08-19T09:42:11;101215.97;;;24.59;68.11
46303;BME280;32029;51.358;5.628;2022-08-19T09:44:40;101237.56;;;24.63;68.04
46303;BME280;32029;51.358;5.628;2022-08-19T09:47:10;101231.72;;;24.70;68.86
46303;BME280;32029;51.358;5.628;2022-08-19T09:49:37;101216.00;;;24.69;68.76
46303;BME280;32029;51.358;5.628;2022-08-19T09:52:10;101185.19;;;24.74;67.17
46303;BME280;32029;51.358;5.628;2022-08-19T09:54:38;101232.53;;;25.13;66.42
46303;BME280;32029;51.358;5.628;2022-08-19T09:57:05;101238.16;;;25.18;66.25
46303;BME280;32029;51.358;5.628;2022-08-19T09:59:33;101241.00;;;25.28;66.83
46303;BME280;32029;51.358;5.628;2022-08-19T10:02:00;101248.34;;;25.45;65.34
46303;BME280;32029;51.358;5.628;2022-08-19T10:04:28;101232.59;;;25.33;64.52
46303;BME280;32029;51.358;5.628;2022-08-19T10:07:14;101245.00;;;25.48;64.14
46303;BME280;32029;51.358;5.628;2022-08-19T10:09:42;101230.66;;;25.44;63.19
46303;BME280;32029;51.358;5.628;2022-08-19T10:12:09;101198.91;;;25.33;63.08
46303;BME280;32029;51.358;5.628;2022-08-19T10:14:36;101238.88;;;25.71;63.65
46303;BME280;32029;51.358;5.628;2022-08-19T10:17:03;101220.03;;;25.72;63.22
46303;BME280;32029;51.358;5.628;2022-08-19T10:19:30;101234.41;;;25.85;63.39
46303;BME280;32029;51.358;5.628;2022-08-19T10:22:04;101226.81;;;25.81;63.91
46303;BME280;32029;51.358;5.628;2022-08-19T10:24:31;101246.81;;;25.95;64.02
46303;BME280;32029;51.358;5.628;2022-08-19T10:26:59;101246.22;;;25.98;64.09
46303;BME280;32029;51.358;5.628;2022-08-19T10:29:26;101222.59;;;25.78;64.85
46303;BME280;32029;51.358;5.628;2022-08-19T10:31:56;101228.25;;;25.83;64.94
46303;BME280;32029;51.358;5.628;2022-08-19T10:34:25;101253.00;;;26.07;64.19
46303;BME280;32029;51.358;5.628;2022-08-19T10:36:52;101243.13;;;26.09;64.27
46303;BME280;32029;51.358;5.628;2022-08-19T10:39:19;101237.81;;;26.03;64.56
46303;BME280;32029;51.358;5.628;2022-08-19T10:41:46;101240.59;;;26.13;64.65
46303;BME280;32029;51.358;5.628;2022-08-19T10:44:13;101247.91;;;26.34;64.68
46303;BME280;32029;51.358;5.628;2022-08-19T10:46:41;101247.34;;;26.43;64.51
46303;BME280;32029;51.358;5.628;2022-08-19T10:49:10;101247.34;;;26.58;64.41
46303;BME280;32029;51.358;5.628;2022-08-19T10:51:38;101252.94;;;26.73;63.95
46303;BME280;32029;51.358;5.628;2022-08-19T10:54:24;101235.50;;;26.66;62.84
46303;BME280;32029;51.358;5.628;2022-08-19T10:57:12;101229.34;;;26.54;63.34
46303;BME280;32029;51.358;5.628;2022-08-19T10:59:39;101244.78;;;26.67;63.70
46303;BME280;32029;51.358;5.628;2022-08-19T11:02:09;101243.88;;;26.86;62.54
46303;BME280;32029;51.358;5.628;2022-08-19T11:04:37;101231.44;;;27.03;61.93
46303;BME280;32029;51.358;5.628;2022-08-19T11:07:05;101241.56;;;27.19;60.79
46303;BME280;32029;51.358;5.628;2022-08-19T11:09:38;101244.94;;;27.16;61.98
46303;BME280;32029;51.358;5.628;2022-08-19T11:12:06;101241.00;;;27.17;61.02
46303;BME280;32029;51.358;5.628;2022-08-19T11:14:34;101225.53;;;27.04;61.06
46303;BME280;32029;51.358;5.628;2022-08-19T11:17:03;101245.50;;;27.13;61.66
46303;BME280;32029;51.358;5.628;2022-08-19T11:19:30;101240.41;;;27.10;61.11
46303;BME280;32029;51.358;5.628;2022-08-19T11:21:58;101238.75;;;27.09;61.62
46303;BME280;32029;51.358;5.628;2022-08-19T11:24:28;101211.22;;;26.96;62.21
46303;BME280;32029;51.358;5.628;2022-08-19T11:27:03;101241.00;;;27.07;61.60
46303;BME280;32029;51.358;5.628;2022-08-19T11:29:31;101234.56;;;26.96;61.24
46303;BME280;32029;51.358;5.628;2022-08-19T11:31:59;101230.69;;;26.77;62.49
46303;BME280;32029;51.358;5.628;2022-08-19T11:34:28;101229.25;;;26.79;62.76
46303;BME280;32029;51.358;5.628;2022-08-19T11:36:57;101227.06;;;26.76;62.13
46303;BME280;32029;51.358;5.628;2022-08-19T11:39:28;101237.72;;;26.74;62.39
46303;BME280;32029;51.358;5.628;2022-08-19T11:42:00;101224.84;;;26.53;62.86
46303;BME280;32029;51.358;5.628;2022-08-19T11:44:29;101245.66;;;26.62;63.13
46303;BME280;32029;51.358;5.628;2022-08-19T11:46:57;101205.72;;;26.50;63.00
46303;BME280;32029;51.358;5.628;2022-08-19T11:49:27;101201.19;;;26.59;62.86
46303;BME280;32029;51.358;5.628;2022-08-19T11:51:54;101207.94;;;26.68;63.26
46303;BME280;32029;51.358;5.628;2022-08-19T11:54:21;101222.72;;;26.99;63.18
46303;BME280;32029;51.358;5.628;2022-08-19T11:56:48;101206.41;;;26.91;62.41
46303;BME280;32029;51.358;5.628;2022-08-19T11:59:15;101227.47;;;27.14;62.04
46303;BME280;32029;51.358;5.628;2022-08-19T12:01:42;101233.69;;;27.16;62.06
46303;BME280;32029;51.358;5.628;2022-08-19T12:04:10;101207.22;;;27.12;61.39
46303;BME280;32029;51.358;5.628;2022-08-19T12:06:38;101235.34;;;27.17;61.97
46303;BME280;32029;51.358;5.628;2022-08-19T12:09:12;101228.03;;;27.16;61.07
46303;BME280;32029;51.358;5.628;2022-08-19T12:11:43;101221.31;;;27.12;61.11
46303;BME280;32029;51.358;5.628;2022-08-19T12:14:12;101228.03;;;27.16;60.60
46303;BME280;32029;51.358;5.628;2022-08-19T12:16:40;101237.00;;;27.28;60.05
46303;BME280;32029;51.358;5.628;2022-08-19T12:19:07;101227.41;;;27.29;59.29
46303;BME280;32029;51.358;5.628;2022-08-19T12:21:35;101239.69;;;27.49;59.12
46303;BME280;32029;51.358;5.628;2022-08-19T12:24:04;101221.66;;;27.50;58.69
46303;BME280;32029;51.358;5.628;2022-08-19T12:26:31;101220.59;;;27.41;59.53
46303;BME280;32029;51.358;5.628;2022-08-19T12:28:59;101232.97;;;27.45;59.55
46303;BME280;32029;51.358;5.628;2022-08-19T12:31:29;101214.72;;;27.32;60.56
46303;BME280;32029;51.358;5.628;2022-08-19T12:33:57;101228.94;;;27.56;60.47
46303;BME280;32029;51.358;5.628;2022-08-19T12:36:24;101193.44;;;27.55;60.29
46303;BME280;32029;51.358;5.628;2022-08-19T12:38:52;101229.28;;;27.89;60.36
46303;BME280;32029;51.358;5.628;2022-08-19T12:41:19;101197.13;;;27.95;59.52
46303;BME280;32029;51.358;5.628;2022-08-19T12:43:49;101223.16;;;28.16;60.27
46303;BME280;32029;51.358;5.628;2022-08-19T12:46:16;101225.00;;;28.30;59.12
46303;BME280;32029;51.358;5.628;2022-08-19T12:48:44;101201.34;;;28.26;59.50
46303;BME280;32029;51.358;5.628;2022-08-19T12:51:17;101209.28;;;28.53;58.49
46303;BME280;32029;51.358;5.628;2022-08-19T12:53:46;101204.03;;;28.42;58.53
46303;BME280;32029;51.358;5.628;2022-08-19T12:56:13;101193.97;;;28.30;58.72
46303;BME280;32029;51.358;5.628;2022-08-19T12:58:41;101217.50;;;28.50;58.81
46303;BME280;32029;51.358;5.628;2022-08-19T13:01:13;101198.97;;;28.44;58.96
46303;BME280;32029;51.358;5.628;2022-08-19T13:03:40;101209.88;;;28.50;58.80
46303;BME280;32029;51.358;5.628;2022-08-19T13:06:08;101197.88;;;28.34;59.05
46303;BME280;32029;51.358;5.628;2022-08-19T13:08:36;101198.38;;;28.13;59.24